22°C Temp
9°C Dewpoint
44% Humidity
Temperature
13 KM/H
8 MPH
7 KTS
10°
Due North

Wind Speed
Clear
Conditions
Pressure 1015.92 (hPa) - 30 (in)
Visibility 6.2 (mi) - 10.0 (km)

Current Conditions
LGAV
Location 12(km)
Metar :LGAV 182350Z 01007KT CAVOK 22/09 Q1016 NOSIG
Mon 19th August 02:50 am

Airport
  Metar Aviation API Data Provided by https://www.checkwx.com/ PHP scripts by weather34.com ©2019